Time;durP1;ratioP1;P1;durP2;ratioP2;P2;SDS_P1;SDS_P2;PMS_P1;PMS_P2;Temp;Humidity;BMP_temperature;BMP_pressure;BME280_temperature;BME280_humidity;BME280_pressure;Samples;Min_cycle;Max_cycle;Signal;HPM_P1;HPM_P2
2021/07/22 00:01:28;;;;;;;11.65;9.02;;;17.50;99.90;;;;;;5094706;28;20058;-70
2021/07/22 00:03:55;;;;;;;13.82;10.50;;;17.50;99.90;;;;;;5094848;28;20440;-70
2021/07/22 00:06:20;;;;;;;11.13;9.07;;;17.40;99.90;;;;;;5094409;28;20536;-70
2021/07/22 00:08:46;;;;;;;15.32;9.80;;;17.50;99.90;;;;;;5094573;28;20040;-70
2021/07/22 00:11:12;;;;;;;14.55;9.45;;;17.50;99.90;;;;;;5094261;28;20422;-70
2021/07/22 00:13:37;;;;;;;12.07;9.38;;;17.50;99.90;;;;;;5094310;28;20044;-70
2021/07/22 00:16:03;;;;;;;14.93;10.02;;;17.50;99.90;;;;;;5094403;28;20093;-71
2021/07/22 00:18:32;;;;;;;15.25;10.38;;;17.50;99.90;;;;;;5094261;28;20491;-71
2021/07/22 00:20:58;;;;;;;15.50;11.48;;;17.60;99.90;;;;;;5094602;28;20044;-70
2021/07/22 00:23:24;;;;;;;11.65;10.00;;;17.60;99.90;;;;;;5094496;28;20036;-70
2021/07/22 00:25:49;;;;;;;13.70;10.25;;;17.50;99.90;;;;;;5094102;28;20047;-70
2021/07/22 00:28:15;;;;;;;13.20;9.80;;;17.50;99.90;;;;;;5093523;28;20051;-70
2021/07/22 00:30:41;;;;;;;13.63;9.98;;;17.50;99.90;;;;;;5094361;28;20544;-70
2021/07/22 00:33:06;;;;;;;13.05;10.02;;;17.50;99.90;;;;;;5094134;28;20376;-70
2021/07/22 00:35:32;;;;;;;13.80;9.80;;;17.60;99.90;;;;;;5094017;28;20066;-70
2021/07/22 00:37:57;;;;;;;13.73;10.27;;;17.60;99.90;;;;;;5094163;28;20036;-70
2021/07/22 00:40:23;;;;;;;16.13;10.65;;;17.60;99.90;;;;;;5092705;28;20048;-70
2021/07/22 00:42:56;;;;;;;14.15;11.05;;;17.60;99.90;;;;;;5094349;28;20063;-70
2021/07/22 00:45:22;;;;;;;14.82;10.50;;;17.60;99.90;;;;;;5094022;28;20438;-70
2021/07/22 00:47:47;;;;;;;14.70;11.32;;;17.50;99.90;;;;;;5093861;28;20123;-70
2021/07/22 00:50:13;;;;;;;15.38;11.40;;;17.60;99.90;;;;;;5093405;28;20036;-70
2021/07/22 00:52:39;;;;;;;14.00;10.35;;;17.60;99.90;;;;;;5093847;28;20040;-70
2021/07/22 00:55:05;;;;;;;13.85;10.82;;;17.60;99.90;;;;;;5093960;28;20044;-70
2021/07/22 00:57:30;;;;;;;14.10;10.48;;;17.60;99.90;;;;;;5093532;28;20445;-70
2021/07/22 00:59:56;;;;;;;15.32;11.25;;;17.60;99.90;;;;;;5093227;28;20079;-70
2021/07/22 01:02:22;;;;;;;17.23;10.70;;;17.60;99.90;;;;;;5093723;28;20472;-70
2021/07/22 01:04:48;;;;;;;14.70;10.02;;;17.60;99.90;;;;;;5093817;28;20488;-70
2021/07/22 01:07:14;;;;;;;12.82;10.02;;;17.60;99.90;;;;;;5093535;28;20043;-70
2021/07/22 01:09:39;;;;;;;17.15;11.43;;;17.60;99.90;;;;;;5093076;28;20040;-70
2021/07/22 01:12:05;;;;;;;13.65;9.80;;;17.50;99.90;;;;;;5093208;28;20047;-70
2021/07/22 01:14:31;;;;;;;12.15;9.18;;;17.50;99.90;;;;;;5093832;28;20047;-70
2021/07/22 01:16:56;;;;;;;11.48;9.52;;;17.60;99.90;;;;;;5093340;28;20040;-70
2021/07/22 01:19:22;;;;;;;14.88;11.32;;;17.60;99.90;;;;;;5093463;28;20428;-70
2021/07/22 01:21:48;;;;;;;13.93;10.32;;;17.60;99.90;;;;;;5093455;28;20070;-70
2021/07/22 01:24:13;;;;;;;15.27;10.57;;;17.60;99.90;;;;;;5093395;28;20376;-70
2021/07/22 01:26:39;;;;;;;16.17;10.38;;;17.60;99.90;;;;;;5093395;28;20468;-70
2021/07/22 01:29:05;;;;;;;12.77;9.95;;;17.60;99.90;;;;;;5093312;28;20403;-71
2021/07/22 01:31:31;;;;;;;15.63;9.27;;;17.50;99.90;;;;;;5093371;28;20033;-71
2021/07/22 01:33:57;;;;;;;15.38;10.30;;;17.50;99.90;;;;;;5093486;28;20114;-70
2021/07/22 01:36:23;;;;;;;16.50;11.45;;;17.50;99.90;;;;;;5093073;28;20105;-70
2021/07/22 01:38:52;;;;;;;14.45;10.82;;;17.40;99.90;;;;;;5093054;28;20051;-70
2021/07/22 01:41:20;;;;;;;14.57;9.63;;;17.50;99.90;;;;;;5096322;28;20476;-70
2021/07/22 01:43:46;;;;;;;12.98;10.20;;;17.50;99.90;;;;;;5097279;28;20109;-71
2021/07/22 01:46:17;;;;;;;13.75;9.93;;;17.50;99.90;;;;;;5097163;28;20067;-71
2021/07/22 01:48:43;;;;;;;17.65;11.68;;;17.50;99.90;;;;;;5096802;28;20044;-70
2021/07/22 01:51:09;;;;;;;15.85;11.35;;;17.30;99.90;;;;;;5097151;28;20379;-70
2021/07/22 01:53:37;;;;;;;16.23;10.73;;;17.40;99.90;;;;;;5097299;28;20395;-71
2021/07/22 01:56:04;;;;;;;17.10;11.82;;;17.40;99.90;;;;;;5097240;28;20072;-71
2021/07/22 01:58:32;;;;;;;16.45;11.43;;;17.30;99.90;;;;;;5096622;28;20032;-71
2021/07/22 02:01:01;;;;;;;17.15;11.60;;;17.30;99.90;;;;;;5096727;28;20039;-70
2021/07/22 02:03:27;;;;;;;17.30;11.77;;;17.40;99.90;;;;;;5097099;28;20066;-70
2021/07/22 02:05:53;;;;;;;15.10;12.30;;;17.30;99.90;;;;;;5097446;28;20047;-70
2021/07/22 02:08:19;;;;;;;14.90;10.73;;;17.40;99.90;;;;;;5097583;28;20440;-70
2021/07/22 02:10:45;;;;;;;15.20;11.07;;;17.40;99.90;;;;;;5096354;28;20040;-70
2021/07/22 02:13:10;;;;;;;14.55;11.38;;;17.30;99.90;;;;;;5096776;28;20067;-70
2021/07/22 02:15:38;;;;;;;18.15;11.25;;;17.30;99.90;;;;;;5096777;28;20043;-70
2021/07/22 02:18:03;;;;;;;17.35;11.95;;;17.30;99.90;;;;;;5096837;28;20119;-71
2021/07/22 02:20:29;;;;;;;20.38;13.88;;;17.40;99.90;;;;;;5096369;28;20064;-70
2021/07/22 02:22:55;;;;;;;16.63;11.20;;;17.40;99.90;;;;;;5096861;28;20164;-70
2021/07/22 02:25:20;;;;;;;18.15;11.73;;;17.30;99.90;;;;;;5096479;28;20530;-70
2021/07/22 02:27:46;;;;;;;15.93;11.38;;;17.30;99.90;;;;;;5095443;28;20101;-70
2021/07/22 02:30:12;;;;;;;15.77;11.57;;;17.40;99.90;;;;;;5096230;28;20043;-71
2021/07/22 02:32:38;;;;;;;14.55;10.85;;;17.40;99.90;;;;;;5096557;28;20051;-70
2021/07/22 02:35:04;;;;;;;15.52;11.57;;;17.40;99.90;;;;;;5096383;28;20039;-71
2021/07/22 02:37:30;;;;;;;14.45;11.20;;;17.40;99.90;;;;;;5096272;28;20395;-70
2021/07/22 02:39:55;;;;;;;15.13;11.15;;;17.40;99.90;;;;;;5095997;28;20047;-70
2021/07/22 02:42:21;;;;;;;18.55;11.85;;;17.40;99.90;;;;;;5096049;28;20040;-70
2021/07/22 02:44:46;;;;;;;14.93;9.63;;;17.30;99.90;;;;;;5096047;28;20036;-70
2021/07/22 02:47:12;;;;;;;17.25;11.57;;;17.40;99.90;;;;;;5096043;28;20040;-70
2021/07/22 02:49:38;;;;;;;15.93;10.55;;;17.40;99.90;;;;;;5095801;28;20036;-70
2021/07/22 02:52:05;;;;;;;16.42;10.27;;;17.30;99.90;;;;;;5095979;28;20115;-71
2021/07/22 02:54:31;;;;;;;14.85;10.13;;;17.40;99.90;;;;;;5096521;28;20040;-70
2021/07/22 02:56:57;;;;;;;13.02;9.00;;;17.30;99.90;;;;;;5095866;28;20439;-70
2021/07/22 02:59:23;;;;;;;11.95;9.68;;;17.30;99.90;;;;;;5095920;28;20040;-70
2021/07/22 03:01:48;;;;;;;12.15;9.38;;;17.30;99.90;;;;;;5096217;28;20460;-70
2021/07/22 03:04:14;;;;;;;15.07;9.32;;;17.30;99.90;;;;;;5095984;28;20070;-70
2021/07/22 03:06:40;;;;;;;14.13;10.55;;;17.30;99.90;;;;;;5095677;28;20042;-70
2021/07/22 03:09:06;;;;;;;12.80;9.77;;;17.30;99.90;;;;;;5095654;28;20380;-70
2021/07/22 03:11:32;;;;;;;16.80;9.95;;;17.30;99.90;;;;;;5095795;28;20093;-70
2021/07/22 03:13:58;;;;;;;15.70;11.82;;;17.30;99.90;;;;;;5095671;28;20039;-70
2021/07/22 03:16:24;;;;;;;13.27;10.57;;;17.30;99.90;;;;;;5095794;28;20066;-70
2021/07/22 03:18:50;;;;;;;16.52;11.68;;;17.20;99.90;;;;;;5095299;28;20064;-70
2021/07/22 03:21:15;;;;;;;16.73;11.63;;;17.30;99.90;;;;;;5095546;28;20048;-70
2021/07/22 03:23:41;;;;;;;18.42;12.07;;;17.20;99.90;;;;;;5095236;28;20036;-70
2021/07/22 03:26:06;;;;;;;16.52;11.30;;;17.20;99.90;;;;;;5095365;28;20097;-71
2021/07/22 03:28:32;;;;;;;15.27;11.27;;;17.20;99.90;;;;;;5095306;28;20044;-70
2021/07/22 03:30:58;;;;;;;17.10;11.80;;;17.20;99.90;;;;;;5095344;28;20514;-70
2021/07/22 03:33:24;;;;;;;16.60;12.13;;;17.20;99.90;;;;;;5095257;28;20043;-70
2021/07/22 03:35:49;;;;;;;16.83;10.95;;;17.20;99.90;;;;;;5095059;28;20115;-70
2021/07/22 03:38:15;;;;;;;15.20;10.32;;;17.10;99.90;;;;;;5094784;28;20075;-70
2021/07/22 03:40:41;;;;;;;16.83;11.35;;;17.10;99.90;;;;;;5094659;28;20117;-70
2021/07/22 03:43:06;;;;;;;15.07;10.68;;;17.20;99.90;;;;;;5095375;28;20032;-70
2021/07/22 03:45:32;;;;;;;15.45;10.55;;;17.20;99.90;;;;;;5094964;28;20046;-70
2021/07/22 03:48:01;;;;;;;14.73;11.25;;;17.20;99.90;;;;;;5094909;28;20040;-70
2021/07/22 03:50:27;;;;;;;15.52;10.55;;;17.20;99.90;;;;;;5094405;28;20067;-70
2021/07/22 03:52:54;;;;;;;14.50;10.68;;;17.10;99.90;;;;;;5095233;28;20475;-71
2021/07/22 03:55:21;;;;;;;13.90;10.40;;;17.20;99.90;;;;;;5094886;28;20040;-70
2021/07/22 03:57:47;;;;;;;11.98;8.88;;;17.10;99.90;;;;;;5094831;28;20054;-70
2021/07/22 04:00:13;;;;;;;14.32;9.30;;;17.10;99.90;;;;;;5094074;28;20040;-70
2021/07/22 04:02:39;;;;;;;12.45;9.63;;;17.10;99.90;;;;;;5093663;28;20460;-70
2021/07/22 04:05:05;;;;;;;14.25;9.38;;;17.10;99.90;;;;;;5094518;28;20070;-70
2021/07/22 04:07:32;;;;;;;13.25;9.82;;;17.10;99.90;;;;;;5094765;28;20048;-70
2021/07/22 04:09:57;;;;;;;11.35;8.38;;;17.10;99.90;;;;;;5094113;28;20111;-70
2021/07/22 04:12:23;;;;;;;13.20;9.07;;;17.10;99.90;;;;;;5094230;28;20071;-70
2021/07/22 04:14:49;;;;;;;9.68;7.78;;;17.10;99.90;;;;;;5094615;28;20065;-70
2021/07/22 04:17:15;;;;;;;11.38;8.00;;;17.10;99.90;;;;;;5094386;28;20040;-70
2021/07/22 04:19:41;;;;;;;10.75;7.60;;;17.20;99.90;;;;;;5093855;28;20036;-71
2021/07/22 04:22:07;;;;;;;11.40;7.80;;;17.20;99.90;;;;;;5094520;28;20089;-70
2021/07/22 04:24:32;;;;;;;12.68;8.63;;;17.20;99.90;;;;;;5094197;28;20487;-71
2021/07/22 04:26:58;;;;;;;16.25;8.43;;;17.20;99.90;;;;;;5094093;28;20032;-70
2021/07/22 04:29:24;;;;;;;11.27;7.32;;;17.20;99.90;;;;;;5093980;28;20039;-70
2021/07/22 04:31:49;;;;;;;10.82;7.50;;;17.20;99.90;;;;;;5094256;28;20032;-70
2021/07/22 04:34:15;;;;;;;10.43;7.72;;;17.20;99.90;;;;;;5094526;28;20046;-70
2021/07/22 04:36:40;;;;;;;10.57;8.65;;;17.20;99.90;;;;;;5094185;28;20043;-70
2021/07/22 04:39:06;;;;;;;10.88;8.15;;;17.20;99.90;;;;;;5093718;28;20480;-70
2021/07/22 04:41:32;;;;;;;14.43;9.82;;;17.20;99.90;;;;;;5094166;28;20095;-70
2021/07/22 04:43:57;;;;;;;12.27;8.70;;;17.20;99.90;;;;;;5094205;28;20109;-70
2021/07/22 04:46:23;;;;;;;12.82;9.00;;;17.20;99.90;;;;;;5094244;28;20417;-70
2021/07/22 04:48:49;;;;;;;11.27;7.75;;;17.20;99.90;;;;;;5094326;28;20036;-70
2021/07/22 04:51:14;;;;;;;12.43;8.32;;;17.20;99.90;;;;;;5094029;28;20371;-70
2021/07/22 04:53:40;;;;;;;14.60;9.00;;;17.20;99.90;;;;;;5093819;28;20036;-70
2021/07/22 04:56:07;;;;;;;9.13;7.28;;;17.20;99.90;;;;;;5093734;28;20040;-70
2021/07/22 04:58:33;;;;;;;12.73;8.52;;;17.10;99.90;;;;;;5093192;28;20118;-70
2021/07/22 05:00:58;;;;;;;12.60;7.50;;;17.20;99.90;;;;;;5093740;28;20119;-70
2021/07/22 05:03:24;;;;;;;11.02;7.63;;;17.20;99.90;;;;;;5093592;28;20105;-70
2021/07/22 05:05:49;;;;;;;11.68;7.53;;;17.20;99.90;;;;;;5093508;28;20047;-70
2021/07/22 05:08:16;;;;;;;9.93;6.65;;;17.20;99.90;;;;;;5093621;28;20057;-70
2021/07/22 05:10:41;;;;;;;13.10;7.28;;;17.10;99.90;;;;;;5093047;28;20040;-70
2021/07/22 05:13:07;;;;;;;12.00;7.10;;;17.20;99.90;;;;;;5093440;28;20115;-71
2021/07/22 05:15:33;;;;;;;9.65;6.47;;;17.20;99.90;;;;;;5093334;28;20040;-71
2021/07/22 05:17:58;;;;;;;9.10;6.25;;;17.20;99.90;;;;;;5093296;28;20384;-72
2021/07/22 05:20:24;;;;;;;7.10;6.10;;;17.20;99.90;;;;;;5093042;28;20475;-72
2021/07/22 05:22:50;;;;;;;8.95;6.47;;;17.20;99.90;;;;;;5093486;28;20061;-72
2021/07/22 05:25:15;;;;;;;10.18;6.05;;;17.20;99.90;;;;;;5093920;28;20047;-71
2021/07/22 05:27:41;;;;;;;8.55;6.05;;;17.30;99.90;;;;;;5093756;28;20126;-71
2021/07/22 05:30:07;;;;;;;12.18;7.28;;;17.30;99.90;;;;;;5093167;28;20479;-69
2021/07/22 05:32:33;;;;;;;10.48;6.32;;;17.20;99.90;;;;;;5093761;28;20520;-70
2021/07/22 05:34:59;;;;;;;10.15;5.80;;;17.30;99.90;;;;;;5093870;28;20040;-69
2021/07/22 05:37:25;;;;;;;8.35;5.57;;;17.30;99.90;;;;;;5093199;28;20502;-69
2021/07/22 05:39:51;;;;;;;9.38;5.80;;;17.40;99.90;;;;;;5093253;28;20036;-69
2021/07/22 05:42:17;;;;;;;9.77;6.40;;;17.60;99.90;;;;;;5093067;28;20039;-69
2021/07/22 05:44:43;;;;;;;7.25;6.40;;;17.70;99.90;;;;;;5093298;28;20058;-69
2021/07/22 05:47:08;;;;;;;9.45;6.03;;;17.70;99.90;;;;;;5093219;28;20040;-69
2021/07/22 05:49:34;;;;;;;8.18;5.93;;;17.70;99.90;;;;;;5091677;28;20115;-69
2021/07/22 05:52:00;;;;;;;7.63;5.10;;;17.70;99.90;;;;;;5093114;28;20152;-69
2021/07/22 05:54:26;;;;;;;6.88;5.25;;;17.70;99.90;;;;;;5093451;28;20036;-69
2021/07/22 05:56:52;;;;;;;7.43;5.10;;;17.80;99.90;;;;;;5093137;28;20545;-69
2021/07/22 05:59:17;;;;;;;7.03;5.13;;;17.90;99.90;;;;;;5092860;28;20442;-70
2021/07/22 06:01:43;;;;;;;7.07;5.05;;;17.80;99.90;;;;;;5093035;28;20411;-69
2021/07/22 06:04:09;;;;;;;5.38;4.63;;;17.90;99.90;;;;;;5093111;28;20068;-70
2021/07/22 06:06:36;;;;;;;6.18;4.95;;;17.90;99.90;;;;;;5075092;28;20036;-70
2021/07/22 06:09:03;;;;;;;9.40;4.53;;;17.90;99.90;;;;;;5092683;28;20044;-71
2021/07/22 06:11:29;;;;;;;6.85;4.82;;;17.90;99.90;;;;;;5092985;28;20046;-71
2021/07/22 06:13:55;;;;;;;6.50;4.28;;;18.00;99.90;;;;;;5093365;28;20036;-70
2021/07/22 06:16:21;;;;;;;5.43;4.30;;;18.10;99.90;;;;;;5092773;28;20039;-71
2021/07/22 06:18:46;;;;;;;6.82;4.75;;;18.10;99.90;;;;;;5093156;28;20082;-70
2021/07/22 06:21:14;;;;;;;6.57;5.20;;;18.10;99.90;;;;;;5101542;28;20044;-71
2021/07/22 06:23:40;;;;;;;6.05;4.45;;;18.10;99.90;;;;;;5108538;28;20504;-71
2021/07/22 06:26:05;;;;;;;8.40;4.47;;;18.10;99.90;;;;;;5093694;28;20060;-71
2021/07/22 06:28:31;;;;;;;8.13;4.65;;;18.20;99.90;;;;;;5096642;28;20047;-71
2021/07/22 06:30:57;;;;;;;6.80;4.68;;;18.20;99.90;;;;;;5096413;28;20040;-70
2021/07/22 06:33:23;;;;;;;7.63;5.15;;;18.20;99.90;;;;;;5096471;28;20521;-71
2021/07/22 06:35:50;;;;;;;6.18;4.78;;;18.20;99.90;;;;;;5096567;28;20040;-71
2021/07/22 06:38:15;;;;;;;7.78;4.68;;;18.30;99.90;;;;;;5096376;28;20050;-71
2021/07/22 06:40:41;;;;;;;6.35;4.55;;;18.20;99.90;;;;;;5096008;28;20045;-71
2021/07/22 06:43:08;;;;;;;7.13;4.70;;;18.20;99.90;;;;;;5096136;28;20046;-70
2021/07/22 06:45:35;;;;;;;6.88;4.50;;;18.30;99.90;;;;;;5096144;28;20055;-70
2021/07/22 06:48:04;;;;;;;8.93;4.85;;;18.40;99.90;;;;;;5095963;28;20044;-71
2021/07/22 06:50:30;;;;;;;7.05;4.70;;;18.50;99.90;;;;;;5095609;28;20040;-70
2021/07/22 06:52:55;;;;;;;5.70;4.80;;;18.40;99.90;;;;;;5096065;28;20445;-72
2021/07/22 06:55:21;;;;;;;7.60;5.50;;;18.60;99.90;;;;;;5096104;28;20040;-71
2021/07/22 06:57:49;;;;;;;7.05;5.05;;;18.70;99.90;;;;;;5094565;28;20081;-71
2021/07/22 07:00:15;;;;;;;6.78;4.95;;;18.80;99.90;;;;;;5095494;28;20047;-71
2021/07/22 07:02:42;;;;;;;7.50;5.88;;;18.80;99.90;;;;;;5095911;28;20115;-71
2021/07/22 07:05:08;;;;;;;7.25;5.15;;;18.70;99.90;;;;;;5096147;28;20040;-71
2021/07/22 07:07:35;;;;;;;7.53;5.40;;;19.00;99.90;;;;;;5095645;28;20115;-71
2021/07/22 07:10:01;;;;;;;7.18;5.25;;;19.20;99.90;;;;;;5094672;28;20044;-71
2021/07/22 07:12:27;;;;;;;6.32;4.88;;;19.20;99.90;;;;;;5095462;28;20036;-71
2021/07/22 07:14:53;;;;;;;9.20;5.18;;;19.30;99.90;;;;;;5095595;28;20449;-71
2021/07/22 07:17:18;;;;;;;8.43;4.65;;;19.30;99.90;;;;;;5095433;28;20044;-70
2021/07/22 07:19:44;;;;;;;8.27;4.55;;;19.10;99.90;;;;;;5095051;28;20505;-71
2021/07/22 07:22:10;;;;;;;7.95;4.13;;;19.40;99.90;;;;;;5095350;28;20065;-70
2021/07/22 07:24:36;;;;;;;8.40;3.85;;;20.00;99.90;;;;;;5095253;28;20040;-73
2021/07/22 07:27:04;;;;;;;5.63;4.30;;;20.30;98.80;;;;;;5095403;28;20066;-71
2021/07/22 07:29:29;;;;;;;8.77;4.15;;;20.40;99.30;;;;;;5094925;28;20036;-71
2021/07/22 07:32:04;;;;;;;6.97;3.65;;;20.30;99.90;;;;;;5095374;28;20058;-71
2021/07/22 07:34:30;;;;;;;4.03;3.63;;;20.10;99.90;;;;;;5095402;28;20067;-71
2021/07/22 07:36:56;;;;;;;5.18;3.75;;;19.90;99.90;;;;;;5094914;28;20513;-71
2021/07/22 07:39:22;;;;;;;5.70;3.60;;;19.90;99.90;;;;;;5094885;28;20039;-71
2021/07/22 07:41:48;;;;;;;5.13;3.60;;;19.70;99.90;;;;;;5095034;28;20044;-70
2021/07/22 07:44:14;;;;;;;5.72;3.45;;;19.50;99.90;;;;;;5094784;28;20395;-71
2021/07/22 07:46:39;;;;;;;4.93;3.60;;;19.40;99.90;;;;;;5094839;28;20032;-71
2021/07/22 07:49:06;;;;;;;4.88;3.78;;;19.40;99.90;;;;;;5094417;28;20046;-71
2021/07/22 07:51:32;;;;;;;7.68;4.18;;;19.50;99.90;;;;;;5094984;28;20033;-71
2021/07/22 07:53:58;;;;;;;5.40;4.07;;;19.90;99.90;;;;;;5094792;28;20071;-71
2021/07/22 07:56:24;;;;;;;8.15;4.00;;;20.40;99.20;;;;;;5094770;28;20444;-71
2021/07/22 07:58:49;;;;;;;4.38;3.83;;;21.00;97.40;;;;;;5094323;28;20126;-71
2021/07/22 08:01:15;;;;;;;6.35;3.80;;;21.40;98.80;;;;;;5094566;28;20039;-69
2021/07/22 08:03:41;;;;;;;4.75;4.25;;;21.80;97.70;;;;;;5094674;28;20487;-70
2021/07/22 08:06:07;;;;;;;5.15;3.88;;;22.10;94.80;;;;;;5094910;28;20036;-70
2021/07/22 08:08:32;;;;;;;5.70;3.70;;;22.40;94.80;;;;;;5094756;28;20044;-71
2021/07/22 08:10:59;;;;;;;4.70;3.83;;;22.60;92.80;;;;;;5094794;28;20483;-70
2021/07/22 08:13:26;;;;;;;4.50;3.38;;;22.10;91.40;;;;;;5093207;28;20043;-70
2021/07/22 08:15:52;;;;;;;5.53;3.70;;;21.40;93.20;;;;;;5094512;28;20406;-70
2021/07/22 08:18:17;;;;;;;5.05;3.60;;;20.70;93.60;;;;;;5094552;28;20085;-70
2021/07/22 08:20:43;;;;;;;4.32;3.05;;;20.70;95.30;;;;;;5092946;28;20433;-70
2021/07/22 08:23:09;;;;;;;6.72;3.53;;;20.20;95.60;;;;;;5094137;28;20040;-70
2021/07/22 08:25:36;;;;;;;5.05;3.60;;;20.10;97.20;;;;;;5094371;28;20084;-70
2021/07/22 08:28:03;;;;;;;5.03;3.70;;;19.70;96.50;;;;;;5094221;28;20048;-70
2021/07/22 08:30:29;;;;;;;4.57;3.00;;;19.90;97.60;;;;;;5092524;28;20115;-70
2021/07/22 08:32:54;;;;;;;4.60;3.53;;;19.70;97.50;;;;;;5094074;28;20067;-70
2021/07/22 08:35:20;;;;;;;7.88;3.53;;;19.70;98.50;;;;;;5094081;28;20039;-70
2021/07/22 08:37:46;;;;;;;5.63;3.00;;;19.60;97.50;;;;;;5093923;28;20040;-70
2021/07/22 08:40:13;;;;;;;4.70;3.17;;;19.70;98.20;;;;;;5095876;28;20038;-71
2021/07/22 08:42:43;;;;;;;5.80;3.35;;;20.10;97.60;;;;;;5114205;28;20479;-70
2021/07/22 08:45:10;;;;;;;5.28;3.40;;;20.30;95.70;;;;;;5114222;28;20106;-70
2021/07/22 08:47:36;;;;;;;5.55;3.63;;;20.20;94.90;;;;;;5114191;28;20380;-70
2021/07/22 08:50:03;;;;;;;4.53;2.95;;;19.80;94.50;;;;;;5113750;28;20089;-70
2021/07/22 08:52:29;;;;;;;4.88;3.45;;;20.00;95.60;;;;;;5113922;28;20035;-70
2021/07/22 08:54:54;;;;;;;4.30;2.90;;;20.20;96.90;;;;;;5114551;28;20032;-70
2021/07/22 08:57:33;;;;;;;6.15;2.83;;;20.70;96.70;;;;;;5114008;28;20464;-70
2021/07/22 09:00:00;;;;;;;4.22;3.17;;;21.40;96.30;;;;;;5114083;28;20495;-70
2021/07/22 09:02:30;;;;;;;3.45;2.60;;;21.50;93.40;;;;;;5114134;28;20036;-70
2021/07/22 09:04:57;;;;;;;4.35;3.00;;;22.10;90.90;;;;;;5113822;28;20039;-70
2021/07/22 09:07:24;;;;;;;3.20;2.90;;;22.40;90.70;;;;;;5113629;28;20048;-70
2021/07/22 09:10:05;;;;;;;4.60;3.17;;;22.40;88.40;;;;;;5113518;28;20548;-70
2021/07/22 09:12:35;;;;;;;4.57;2.90;;;22.70;84.00;;;;;;5114071;28;20044;-71
2021/07/22 09:15:02;;;;;;;5.03;3.03;;;22.30;84.50;;;;;;5113895;28;20119;-71
2021/07/22 09:17:27;;;;;;;6.72;3.45;;;22.70;89.40;;;;;;5113754;28;20495;-70
2021/07/22 09:19:53;;;;;;;7.57;4.47;;;22.40;90.30;;;;;;5113463;28;20068;-71
2021/07/22 09:22:33;;;;;;;7.20;3.42;;;22.20;91.30;;;;;;5113736;28;20509;-71
2021/07/22 09:24:59;;;;;;;5.38;3.72;;;21.90;89.20;;;;;;5113676;28;20092;-70
2021/07/22 09:27:39;;;;;;;5.00;3.38;;;21.50;90.50;;;;;;5113648;28;20044;-71
2021/07/22 09:30:19;;;;;;;6.00;3.78;;;21.10;92.00;;;;;;5112240;28;20387;-71
2021/07/22 09:32:49;;;;;;;5.68;3.28;;;21.40;93.70;;;;;;5113748;28;20371;-71
2021/07/22 09:35:23;;;;;;;6.18;3.58;;;21.90;93.10;;;;;;5113714;28;20040;-71
2021/07/22 09:37:52;;;;;;;6.43;3.17;;;22.20;92.60;;;;;;5114140;28;20092;-71
2021/07/22 09:40:37;;;;;;;4.78;3.78;;;22.40;91.70;;;;;;5113015;28;20483;-71
2021/07/22 09:43:03;;;;;;;4.82;3.30;;;22.60;87.00;;;;;;5112499;28;20050;-71
2021/07/22 09:45:30;;;;;;;6.20;3.83;;;22.20;90.50;;;;;;5113568;28;20035;-71
2021/07/22 09:48:11;;;;;;;6.65;3.40;;;21.80;88.50;;;;;;5113748;28;20490;-70
2021/07/22 09:50:42;;;;;;;4.13;3.25;;;22.00;88.40;;;;;;5113059;28;20092;-70
2021/07/22 09:53:10;;;;;;;4.80;2.75;;;22.20;90.00;;;;;;5113276;28;20073;-70
2021/07/22 09:55:38;;;;;;;4.60;3.20;;;22.40;90.30;;;;;;5113540;28;20042;-70
2021/07/22 09:58:05;;;;;;;6.00;3.58;;;22.70;89.70;;;;;;5113434;28;20075;-70
2021/07/22 10:00:32;;;;;;;7.70;3.90;;;23.00;89.30;;;;;;5113082;28;20039;-70
2021/07/22 10:03:04;;;;;;;3.22;2.92;;;22.70;89.30;;;;;;5117736;28;20047;-71
2021/07/22 10:05:44;;;;;;;6.38;4.07;;;22.40;89.70;;;;;;5117288;28;20036;-71
2021/07/22 10:08:14;;;;;;;6.93;3.95;;;22.10;83.70;;;;;;5117480;28;20035;-71
2021/07/22 10:10:43;;;;;;;5.22;3.58;;;21.40;85.30;;;;;;5116937;28;20035;-70
2021/07/22 10:13:09;;;;;;;8.00;3.55;;;21.60;89.90;;;;;;5117173;28;20047;-71
2021/07/22 10:15:36;;;;;;;5.55;3.70;;;22.00;92.00;;;;;;5117149;28;20494;-71
2021/07/22 10:18:05;;;;;;;4.88;3.63;;;21.90;89.30;;;;;;5116912;28;20040;-71
2021/07/22 10:20:32;;;;;;;6.80;3.60;;;22.00;88.20;;;;;;5116564;28;20538;-71
2021/07/22 10:22:59;;;;;;;6.65;3.38;;;22.30;85.70;;;;;;5117156;28;20082;-71
2021/07/22 10:25:26;;;;;;;4.78;3.45;;;22.10;83.10;;;;;;5116814;28;20089;-70
2021/07/22 10:27:56;;;;;;;5.68;3.00;;;21.90;79.70;;;;;;5116884;28;20044;-70
2021/07/22 10:30:24;;;;;;;4.05;2.72;;;22.10;85.30;;;;;;5116443;28;20475;-70
2021/07/22 10:32:54;;;;;;;5.28;3.10;;;22.20;85.70;;;;;;5116828;28;20032;-69
2021/07/22 10:35:26;;;;;;;6.50;3.70;;;22.20;84.20;;;;;;5116695;28;20476;-71
2021/07/22 10:38:23;;;;;;;5.45;2.90;;;22.40;90.10;;;;;;5116867;28;20044;-70
2021/07/22 10:41:01;;;;;;;4.50;3.08;;;22.10;81.20;;;;;;5116069;28;20116;-70
2021/07/22 10:43:35;;;;;;;3.55;3.08;;;22.00;87.30;;;;;;5116578;28;20035;-70
2021/07/22 10:46:02;;;;;;;3.90;3.17;;;22.30;86.80;;;;;;5116703;28;20031;-70
2021/07/22 10:48:29;;;;;;;5.50;3.63;;;22.30;88.30;;;;;;5116109;28;20514;-71
2021/07/22 10:50:54;;;;;;;4.68;3.78;;;22.30;87.40;;;;;;5116528;28;20047;-70
2021/07/22 10:53:54;;;;;;;4.95;3.50;;;22.50;87.40;;;;;;5116695;28;20051;-70
2021/07/22 10:56:22;;;;;;;6.95;3.70;;;22.10;85.10;;;;;;5116152;28;20084;-70
2021/07/22 10:59:06;;;;;;;3.70;3.33;;;22.00;86.90;;;;;;5115893;28;20039;-70
2021/07/22 11:01:44;;;;;;;6.70;2.60;;;21.80;80.70;;;;;;5116145;28;20046;-70
2021/07/22 11:04:16;;;;;;;5.80;3.25;;;21.90;84.20;;;;;;5116359;28;20044;-70
2021/07/22 11:07:01;;;;;;;7.67;3.60;;;22.00;84.40;;;;;;5116686;28;20036;-70
2021/07/22 11:09:45;;;;;;;4.28;3.58;;;21.10;82.70;;;;;;5115712;28;20377;-70
2021/07/22 11:12:31;;;;;;;6.65;3.92;;;20.90;84.70;;;;;;5115558;28;20047;-70
2021/07/22 11:14:58;;;;;;;5.40;4.07;;;21.30;81.70;;;;;;5115805;28;20039;-70
2021/07/22 11:17:31;;;;;;;8.00;4.20;;;21.40;86.80;;;;;;5116246;28;20474;-70
2021/07/22 11:20:19;;;;;;;6.50;3.88;;;21.30;87.80;;;;;;5115987;28;20043;-70
2021/07/22 11:22:46;;;;;;;4.57;4.05;;;21.20;87.80;;;;;;5115680;28;20059;-70
2021/07/22 11:25:13;;;;;;;6.30;4.40;;;21.60;91.10;;;;;;5115940;28;20114;-70
2021/07/22 11:27:46;;;;;;;8.77;4.10;;;21.60;90.10;;;;;;5116163;28;20075;-70
2021/07/22 11:30:17;;;;;;;3.50;3.20;;;21.20;87.00;;;;;;5114205;28;20114;-70
2021/07/22 11:32:44;;;;;;;6.13;3.85;;;21.10;88.10;;;;;;5116058;27;20040;-70
2021/07/22 11:35:11;;;;;;;7.68;3.95;;;21.10;87.70;;;;;;5114350;28;20115;-70
2021/07/22 11:37:38;;;;;;;4.93;3.67;;;21.20;85.60;;;;;;5115535;28;20075;-70
2021/07/22 11:40:14;;;;;;;3.85;3.55;;;20.90;86.70;;;;;;5115370;28;20510;-70
2021/07/22 11:42:49;;;;;;;5.70;4.07;;;21.10;91.50;;;;;;5115620;28;20039;-70
2021/07/22 11:45:15;;;;;;;5.47;3.25;;;21.40;89.20;;;;;;5114354;28;20067;-70
2021/07/22 11:47:41;;;;;;;5.85;3.53;;;21.10;87.00;;;;;;5115309;28;20108;-70
2021/07/22 11:50:08;;;;;;;5.75;4.50;;;21.30;90.60;;;;;;5114878;28;20364;-70
2021/07/22 11:52:35;;;;;;;6.45;3.65;;;21.50;88.70;;;;;;5115478;28;20036;-70
2021/07/22 11:55:12;;;;;;;5.43;3.55;;;21.50;86.80;;;;;;5115232;27;20036;-70
2021/07/22 11:57:39;;;;;;;4.95;3.78;;;21.30;86.90;;;;;;5114933;28;20407;-70
2021/07/22 12:00:12;;;;;;;6.72;4.22;;;21.40;90.70;;;;;;5114650;28;20032;-70
2021/07/22 12:02:42;;;;;;;4.60;3.85;;;21.10;86.10;;;;;;5114880;28;20032;-70
2021/07/22 12:05:08;;;;;;;6.95;3.58;;;21.40;84.80;;;;;;5115113;28;20039;-70
2021/07/22 12:07:34;;;;;;;7.57;3.13;;;21.30;84.60;;;;;;5114952;28;20044;-70
2021/07/22 12:09:59;;;;;;;6.00;3.63;;;21.20;85.80;;;;;;5114966;27;20039;-70
2021/07/22 12:12:25;;;;;;;4.30;3.20;;;21.10;87.30;;;;;;5114721;28;20444;-70
2021/07/22 12:15:00;;;;;;;5.05;3.72;;;21.10;87.50;;;;;;5115286;27;20076;-70
2021/07/22 12:17:27;;;;;;;5.50;3.45;;;21.20;88.30;;;;;;5114758;28;20043;-69
2021/07/22 12:19:52;;;;;;;6.03;3.72;;;21.30;85.60;;;;;;5114317;28;20058;-70
2021/07/22 12:22:31;;;;;;;4.43;3.80;;;21.30;90.10;;;;;;5115151;28;20067;-70
2021/07/22 12:25:02;;;;;;;5.75;3.13;;;21.10;89.70;;;;;;5113856;28;20037;-70
2021/07/22 12:27:34;;;;;;;3.45;2.95;;;21.20;89.60;;;;;;5114350;28;20035;-69
2021/07/22 12:30:04;;;;;;;3.60;3.30;;;21.30;87.10;;;;;;5114149;28;20064;-70
2021/07/22 12:32:30;;;;;;;4.68;3.20;;;21.20;88.70;;;;;;5114562;28;20040;-70
2021/07/22 12:34:59;;;;;;;3.92;3.53;;;20.80;88.00;;;;;;5114613;28;20046;-70
2021/07/22 12:37:56;;;;;;;7.03;3.47;;;20.90;91.60;;;;;;5114510;28;20093;-70
2021/07/22 12:40:56;;;;;;;5.50;3.90;;;21.10;92.70;;;;;;5113924;28;20126;-70
2021/07/22 12:43:24;;;;;;;4.32;3.78;;;21.30;91.20;;;;;;5114243;28;20036;-70